createdAt,value
2022-10-31T00:00:02.715Z,74
2022-10-31T00:20:03.316Z,74
2022-10-31T00:40:02.530Z,74
2022-10-31T01:00:02.766Z,74
2022-10-31T01:20:02.321Z,74
2022-10-31T01:40:02.572Z,74
2022-10-31T02:00:03.928Z,74
2022-10-31T02:20:03.285Z,74
2022-10-31T02:40:02.752Z,74
2022-10-31T03:00:03.215Z,74
2022-10-31T03:20:02.681Z,74
2022-10-31T03:40:02.905Z,75
2022-10-31T04:00:02.224Z,75
2022-10-31T04:20:02.880Z,75
2022-10-31T04:40:02.124Z,75
2022-10-31T05:00:02.386Z,75
2022-10-31T05:20:03.075Z,75
2022-10-31T05:40:08.469Z,75
2022-10-31T06:00:03.270Z,75
2022-10-31T06:20:02.604Z,75
2022-10-31T06:40:03.036Z,75
2022-10-31T07:00:02.603Z,75
2022-10-31T07:20:03.314Z,76
2022-10-31T07:40:02.842Z,76
2022-10-31T08:00:03.121Z,77
2022-10-31T08:20:02.515Z,79
2022-10-31T08:40:03.073Z,80
2022-10-31T09:00:02.745Z,80
2022-10-31T09:20:02.226Z,79
2022-10-31T09:40:02.553Z,77
2022-10-31T10:00:03.219Z,75
2022-10-31T10:20:02.693Z,74
2022-10-31T10:40:03.289Z,73
2022-10-31T11:00:02.614Z,71
2022-10-31T11:20:03.083Z,70
2022-10-31T11:40:02.655Z,69
2022-10-31T12:00:03.081Z,68
2022-10-31T12:20:02.583Z,67
2022-10-31T12:40:02.905Z,67
2022-10-31T13:00:02.337Z,67
2022-10-31T13:20:03.398Z,68
2022-10-31T13:40:03.003Z,68
2022-10-31T14:00:02.323Z,69
2022-10-31T14:20:03.156Z,69
2022-10-31T14:40:02.515Z,70
2022-10-31T15:00:04.518Z,71
2022-10-31T15:20:03.334Z,72
2022-10-31T15:40:03.012Z,73
2022-10-31T16:00:02.447Z,73
2022-10-31T16:20:02.557Z,73
2022-10-31T16:40:03.187Z,73
2022-10-31T17:00:03.543Z,74
2022-10-31T17:20:02.227Z,74
2022-10-31T17:40:02.612Z,75
2022-10-31T18:00:02.852Z,75
2022-10-31T18:20:02.254Z,75
2022-10-31T18:40:02.570Z,75
2022-10-31T19:00:04.225Z,75
2022-10-31T19:20:04.469Z,75
2022-10-31T19:40:04.129Z,76
2022-10-31T20:00:02.852Z,76
2022-10-31T20:20:03.763Z,76
2022-10-31T20:40:03.293Z,76
2022-10-31T21:00:03.032Z,76
2022-10-31T21:20:03.167Z,76
2022-10-31T21:40:03.601Z,76
2022-10-31T22:00:03.553Z,76
2022-10-31T22:20:03.168Z,77
2022-10-31T22:40:02.613Z,79
2022-10-31T23:00:03.157Z,80
2022-10-31T23:20:02.767Z,81
2022-10-31T23:40:03.184Z,81
